Time;durP1;ratioP1;P1;durP2;ratioP2;P2;SDS_P1;SDS_P2;PMS_P1;PMS_P2;Temp;Humidity;BMP_temperature;BMP_pressure;BME280_temperature;BME280_humidity;BME280_pressure;Samples;Min_cycle;Max_cycle;Signal;HPM_P1;HPM_P2
2022/01/29 00:02:24;;;;;;;5.47;3.72;;;;;;;;;;5061750;28;20072;-71
2022/01/29 00:04:50;;;;;;;9.05;4.60;;;;;;;;;;5062072;28;20028;-72
2022/01/29 00:07:15;;;;;;;8.65;4.15;;;;;;;;;;5061851;28;20510;-72
2022/01/29 00:09:43;;;;;;;6.20;3.67;;;;;;;;;;5061127;28;20394;-73
2022/01/29 00:12:09;;;;;;;7.38;3.88;;;;;;;;;;5061635;28;20036;-71
2022/01/29 00:14:35;;;;;;;7.05;4.00;;;;;;;;;;5061850;28;20912;-72
2022/01/29 00:17:00;;;;;;;5.00;3.85;;;;;;;;;;5061737;28;20093;-73
2022/01/29 00:19:26;;;;;;;8.82;3.70;;;;;;;;;;5060545;28;20526;-71
2022/01/29 00:21:51;;;;;;;6.57;3.90;;;;;;;;;;5061535;28;20078;-72
2022/01/29 00:24:17;;;;;;;7.75;3.67;;;;;;;;;;5061477;28;20043;-74
2022/01/29 00:26:43;;;;;;;6.13;3.92;;;;;;;;;;5061897;28;20032;-72
2022/01/29 00:29:17;;;;;;;14.15;4.43;;;;;;;;;;5043430;28;20607;-74
2022/01/29 00:31:42;;;;;;;6.93;4.30;;;;;;;;;;5060516;28;20028;-73
2022/01/29 00:34:08;;;;;;;7.70;4.10;;;;;;;;;;5061133;28;20028;-74
2022/01/29 00:36:33;;;;;;;8.98;4.25;;;;;;;;;;5061644;28;20498;-72
2022/01/29 00:38:59;;;;;;;8.63;4.03;;;;;;;;;;5061098;28;20968;-72
2022/01/29 00:41:24;;;;;;;7.35;3.70;;;;;;;;;;5060855;28;20040;-72
2022/01/29 00:43:50;;;;;;;6.03;4.00;;;;;;;;;;5060969;28;20040;-73
2022/01/29 00:46:15;;;;;;;8.23;3.67;;;;;;;;;;5061156;28;20113;-71
2022/01/29 00:48:40;;;;;;;5.68;3.75;;;;;;;;;;5060951;28;20040;-73
2022/01/29 00:51:06;;;;;;;7.93;3.33;;;;;;;;;;5060015;28;20071;-71
2022/01/29 00:53:31;;;;;;;10.45;3.63;;;;;;;;;;5060126;28;20032;-72
2022/01/29 00:55:57;;;;;;;5.38;3.70;;;;;;;;;;5060826;28;20550;-73
2022/01/29 00:58:22;;;;;;;10.45;4.45;;;;;;;;;;5042907;28;20044;-72
2022/01/29 01:00:48;;;;;;;7.22;4.10;;;;;;;;;;5061016;28;20043;-73
2022/01/29 01:03:13;;;;;;;6.35;4.13;;;;;;;;;;5059381;28;20143;-71
2022/01/29 01:05:39;;;;;;;8.30;4.20;;;;;;;;;;5060846;28;21006;-72
2022/01/29 01:08:04;;;;;;;8.15;4.68;;;;;;;;;;5060827;28;20050;-71
2022/01/29 01:10:30;;;;;;;8.30;4.25;;;;;;;;;;5059605;28;20066;-71
2022/01/29 01:12:55;;;;;;;4.78;3.88;;;;;;;;;;5060854;28;20131;-71
2022/01/29 01:15:21;;;;;;;6.10;3.85;;;;;;;;;;5058645;28;20071;-73
2022/01/29 01:17:46;;;;;;;6.57;3.92;;;;;;;;;;5060830;28;20045;-73
2022/01/29 01:20:12;;;;;;;6.53;4.30;;;;;;;;;;5060594;28;20047;-73
2022/01/29 01:22:37;;;;;;;5.53;3.83;;;;;;;;;;5060564;28;20044;-71
2022/01/29 01:25:03;;;;;;;11.02;4.40;;;;;;;;;;5060734;28;20040;-71
2022/01/29 01:27:29;;;;;;;7.80;4.05;;;;;;;;;;5060154;28;20589;-73
2022/01/29 01:29:54;;;;;;;11.57;4.97;;;;;;;;;;5060544;28;20052;-73
2022/01/29 01:32:20;;;;;;;10.20;4.82;;;;;;;;;;5060657;28;20114;-71
2022/01/29 01:34:50;;;;;;;7.63;4.90;;;;;;;;;;5060760;28;20549;-71
2022/01/29 01:37:32;;;;;;;8.23;4.63;;;;;;;;;;5059891;28;20037;-73
2022/01/29 01:39:58;;;;;;;8.50;5.03;;;;;;;;;;5060669;28;20040;-73
2022/01/29 01:42:23;;;;;;;8.55;4.63;;;;;;;;;;5060412;28;20047;-73
2022/01/29 01:44:50;;;;;;;7.45;4.40;;;;;;;;;;5060833;28;20032;-71
2022/01/29 01:47:17;;;;;;;6.88;4.50;;;;;;;;;;5059703;28;20414;-72
2022/01/29 01:49:43;;;;;;;8.38;5.45;;;;;;;;;;5060188;28;20033;-74
2022/01/29 01:52:12;;;;;;;12.68;5.05;;;;;;;;;;5060177;28;20040;-71
2022/01/29 01:54:39;;;;;;;11.73;5.28;;;;;;;;;;5060052;28;20036;-73
2022/01/29 01:57:04;;;;;;;11.57;6.00;;;;;;;;;;5060584;28;20066;-74
2022/01/29 01:59:31;;;;;;;14.10;5.85;;;;;;;;;;5058186;28;20041;-71
2022/01/29 02:01:56;;;;;;;9.13;5.55;;;;;;;;;;5058669;28;20460;-73
2022/01/29 02:04:22;;;;;;;11.13;5.03;;;;;;;;;;5064423;28;20036;-72
2022/01/29 02:06:51;;;;;;;8.57;4.97;;;;;;;;;;5064277;28;20047;-73
2022/01/29 02:09:19;;;;;;;7.20;4.30;;;;;;;;;;5063156;28;20866;-73
2022/01/29 02:11:56;;;;;;;10.02;4.60;;;;;;;;;;5063665;28;20061;-74
2022/01/29 02:14:29;;;;;;;9.60;4.55;;;;;;;;;;5079745;28;20056;-71
2022/01/29 02:16:55;;;;;;;10.23;4.60;;;;;;;;;;5062696;28;20047;-72
2022/01/29 02:19:20;;;;;;;7.30;3.85;;;;;;;;;;5064011;28;20028;-71
2022/01/29 02:21:46;;;;;;;9.48;4.63;;;;;;;;;;5061582;28;20493;-74
2022/01/29 02:24:11;;;;;;;8.70;4.32;;;;;;;;;;5063720;28;20127;-71
2022/01/29 02:26:37;;;;;;;6.93;4.22;;;;;;;;;;5062512;28;20040;-72
2022/01/29 02:29:04;;;;;;;8.75;4.05;;;;;;;;;;5064021;28;20144;-71
2022/01/29 02:31:29;;;;;;;7.45;4.70;;;;;;;;;;5062571;28;20119;-72
2022/01/29 02:33:55;;;;;;;9.93;4.28;;;;;;;;;;5062963;28;20028;-72
2022/01/29 02:36:21;;;;;;;6.65;4.03;;;;;;;;;;5063692;28;20524;-71
2022/01/29 02:38:46;;;;;;;10.25;4.25;;;;;;;;;;5063538;28;20036;-74
2022/01/29 02:41:12;;;;;;;7.18;4.25;;;;;;;;;;5063460;28;20123;-72
2022/01/29 02:48:53;;;;;;;7.57;3.92;;;;;;;;;;5051755;28;20122;-70
2022/01/29 02:51:19;;;;;;;7.97;5.03;;;;;;;;;;5059416;28;20089;-72
2022/01/29 02:53:44;;;;;;;11.88;5.55;;;;;;;;;;5060634;28;20127;-74
2022/01/29 02:56:10;;;;;;;7.57;4.72;;;;;;;;;;5044882;28;20040;-71
2022/01/29 02:58:36;;;;;;;7.28;4.05;;;;;;;;;;5063331;28;20760;-71
2022/01/29 03:01:03;;;;;;;7.28;3.97;;;;;;;;;;5063035;28;20529;-71
2022/01/29 03:03:28;;;;;;;6.88;4.25;;;;;;;;;;5062945;28;20101;-73
2022/01/29 03:05:53;;;;;;;6.55;2.97;;;;;;;;;;5061832;28;20060;-70
2022/01/29 03:08:19;;;;;;;10.30;3.97;;;;;;;;;;5062817;28;20105;-72
2022/01/29 03:10:47;;;;;;;3.17;2.28;;;;;;;;;;5063015;28;20052;-74
2022/01/29 03:13:13;;;;;;;7.38;3.30;;;;;;;;;;5062515;28;20036;-70
2022/01/29 03:15:39;;;;;;;4.05;2.40;;;;;;;;;;5061906;28;20039;-72
2022/01/29 03:18:04;;;;;;;4.72;2.80;;;;;;;;;;5061268;28;20579;-72
2022/01/29 03:20:30;;;;;;;6.80;2.60;;;;;;;;;;5063030;28;20036;-70
2022/01/29 03:22:56;;;;;;;7.70;3.85;;;;;;;;;;5062478;28;20048;-71
2022/01/29 03:25:22;;;;;;;4.55;3.40;;;;;;;;;;5062772;28;20131;-74
2022/01/29 03:27:47;;;;;;;4.00;3.30;;;;;;;;;;5062133;28;20127;-73
2022/01/29 03:30:12;;;;;;;6.80;3.00;;;;;;;;;;5062158;28;20738;-72
2022/01/29 03:32:38;;;;;;;8.10;3.72;;;;;;;;;;5062562;28;20051;-71
2022/01/29 03:35:04;;;;;;;7.32;3.35;;;;;;;;;;5062342;28;20919;-72
2022/01/29 03:37:29;;;;;;;7.38;3.70;;;;;;;;;;5062099;28;20503;-71
2022/01/29 03:40:01;;;;;;;8.45;4.05;;;;;;;;;;5061957;28;20033;-72
2022/01/29 03:42:30;;;;;;;4.25;3.17;;;;;;;;;;5061050;28;20036;-71
2022/01/29 03:44:57;;;;;;;7.03;4.25;;;;;;;;;;5062169;28;20074;-71
2022/01/29 03:47:22;;;;;;;6.40;3.97;;;;;;;;;;5062239;28;21074;-74
2022/01/29 03:49:48;;;;;;;5.88;4.53;;;;;;;;;;5061358;28;20101;-72
2022/01/29 03:52:13;;;;;;;8.57;4.63;;;;;;;;;;5061900;28;20040;-74
2022/01/29 03:54:38;;;;;;;8.80;4.35;;;;;;;;;;5062322;28;20029;-72
2022/01/29 03:57:04;;;;;;;6.38;4.30;;;;;;;;;;5062191;28;20120;-73
2022/01/29 03:59:29;;;;;;;8.85;4.65;;;;;;;;;;5061203;28;20485;-71
2022/01/29 04:01:55;;;;;;;9.30;5.10;;;;;;;;;;5061674;28;20047;-72
2022/01/29 04:04:20;;;;;;;8.02;4.68;;;;;;;;;;5077211;28;20054;-73
2022/01/29 04:06:46;;;;;;;8.82;5.00;;;;;;;;;;5062042;28;20488;-74
2022/01/29 04:09:12;;;;;;;10.52;4.63;;;;;;;;;;5061780;28;20493;-72
2022/01/29 04:11:38;;;;;;;8.07;4.65;;;;;;;;;;5060710;28;20070;-73
2022/01/29 04:14:15;;;;;;;11.27;4.97;;;;;;;;;;5061311;28;20032;-72
2022/01/29 04:16:40;;;;;;;9.55;4.85;;;;;;;;;;5061531;28;20036;-72
2022/01/29 04:19:06;;;;;;;8.05;4.88;;;;;;;;;;5061584;28;20048;-73
2022/01/29 04:21:31;;;;;;;10.73;4.80;;;;;;;;;;5060685;28;20081;-72
2022/01/29 04:23:57;;;;;;;9.73;5.38;;;;;;;;;;5061148;28;20044;-72
2022/01/29 04:26:22;;;;;;;9.40;5.38;;;;;;;;;;5060929;28;20112;-73
2022/01/29 04:28:48;;;;;;;9.50;4.82;;;;;;;;;;5061362;28;20029;-71
2022/01/29 04:31:18;;;;;;;7.85;4.80;;;;;;;;;;5061403;28;20032;-72
2022/01/29 04:33:44;;;;;;;9.43;5.18;;;;;;;;;;5060825;28;20043;-72
2022/01/29 04:36:10;;;;;;;7.60;4.78;;;;;;;;;;5061102;28;20909;-71
2022/01/29 04:38:35;;;;;;;11.07;5.22;;;;;;;;;;5061386;28;20082;-73
2022/01/29 04:41:04;;;;;;;12.10;4.78;;;;;;;;;;5059755;28;20486;-72
2022/01/29 04:43:33;;;;;;;8.63;4.65;;;;;;;;;;5058644;28;20036;-72
2022/01/29 04:45:59;;;;;;;7.60;4.53;;;;;;;;;;5060912;28;21153;-72
2022/01/29 04:48:25;;;;;;;6.10;4.53;;;;;;;;;;5061288;28;20115;-72
2022/01/29 04:50:51;;;;;;;10.98;5.00;;;;;;;;;;5059516;28;20757;-71
2022/01/29 04:53:17;;;;;;;6.38;4.60;;;;;;;;;;5060045;28;20473;-74
2022/01/29 04:55:42;;;;;;;8.60;4.75;;;;;;;;;;5060229;28;20036;-72
2022/01/29 04:58:08;;;;;;;7.97;5.05;;;;;;;;;;5061002;28;20036;-73
2022/01/29 05:00:35;;;;;;;8.40;4.88;;;;;;;;;;5060672;28;20036;-71
2022/01/29 05:03:11;;;;;;;8.18;4.82;;;;;;;;;;5057871;28;20040;-74
2022/01/29 05:05:38;;;;;;;5.30;4.20;;;;;;;;;;5059005;28;20131;-73
2022/01/29 05:08:03;;;;;;;8.20;4.72;;;;;;;;;;5060522;28;20115;-72
2022/01/29 05:10:30;;;;;;;9.32;4.68;;;;;;;;;;5061179;28;20048;-74
2022/01/29 05:13:08;;;;;;;8.57;4.43;;;;;;;;;;5061151;28;20043;-72
2022/01/29 05:15:41;;;;;;;7.40;4.55;;;;;;;;;;5061226;28;20036;-74
2022/01/29 05:29:06;;;;;;;8.45;5.03;;;;;;;;;;5059467;28;20091;-74
2022/01/29 05:31:32;;;;;;;9.40;5.65;;;;;;;;;;5060620;28;21017;-72
2022/01/29 05:33:57;;;;;;;9.68;5.25;;;;;;;;;;5060640;28;20048;-72
2022/01/29 05:36:24;;;;;;;9.00;5.50;;;;;;;;;;5061596;28;20098;-72
2022/01/29 05:38:49;;;;;;;5.43;4.28;;;;;;;;;;5063705;28;20105;-72
2022/01/29 05:41:15;;;;;;;9.90;5.13;;;;;;;;;;5064715;28;20485;-72
2022/01/29 05:43:41;;;;;;;14.18;5.60;;;;;;;;;;5064291;28;20110;-72
2022/01/29 05:46:07;;;;;;;8.93;4.75;;;;;;;;;;5063235;28;20033;-74
2022/01/29 05:48:32;;;;;;;10.38;4.75;;;;;;;;;;5064649;28;20032;-72
2022/01/29 05:50:58;;;;;;;8.95;4.75;;;;;;;;;;5062462;28;20070;-72
2022/01/29 05:53:23;;;;;;;8.23;4.55;;;;;;;;;;5064239;28;20589;-72
2022/01/29 05:55:48;;;;;;;7.38;4.55;;;;;;;;;;5064077;28;20043;-73
2022/01/29 05:58:14;;;;;;;14.55;5.00;;;;;;;;;;5062685;28;20051;-72
2022/01/29 06:00:39;;;;;;;7.43;4.85;;;;;;;;;;5062040;28;20102;-72
2022/01/29 06:03:07;;;;;;;10.35;5.32;;;;;;;;;;5063400;28;20128;-73
2022/01/29 06:05:33;;;;;;;7.30;4.68;;;;;;;;;;5064335;28;20072;-73
2022/01/29 06:07:58;;;;;;;10.20;5.18;;;;;;;;;;5064224;28;20071;-71
2022/01/29 06:10:24;;;;;;;13.70;5.18;;;;;;;;;;5064255;28;20039;-71
2022/01/29 06:13:04;;;;;;;8.77;5.20;;;;;;;;;;5061712;28;20044;-74
2022/01/29 06:15:34;;;;;;;11.60;5.20;;;;;;;;;;5062400;28;20066;-73
2022/01/29 06:18:00;;;;;;;10.35;5.75;;;;;;;;;;5064023;28;20040;-73
2022/01/29 06:20:25;;;;;;;9.50;5.32;;;;;;;;;;5063532;28;20085;-74
2022/01/29 06:22:51;;;;;;;12.35;5.88;;;;;;;;;;5062912;28;20067;-75
2022/01/29 06:25:17;;;;;;;10.20;5.50;;;;;;;;;;5063704;28;20079;-72
2022/01/29 06:27:43;;;;;;;11.18;5.60;;;;;;;;;;5063821;28;20047;-72
2022/01/29 06:30:09;;;;;;;10.77;5.57;;;;;;;;;;5063725;28;20036;-71
2022/01/29 06:32:34;;;;;;;10.38;5.10;;;;;;;;;;5063563;28;20032;-72
2022/01/29 06:34:59;;;;;;;9.38;5.30;;;;;;;;;;5061068;28;20097;-73
2022/01/29 06:37:25;;;;;;;12.70;5.50;;;;;;;;;;5061109;28;20136;-71
2022/01/29 06:39:50;;;;;;;12.82;5.60;;;;;;;;;;5062302;28;20074;-71
2022/01/29 06:42:16;;;;;;;10.73;5.97;;;;;;;;;;5062596;28;20048;-73
2022/01/29 06:44:41;;;;;;;8.07;4.93;;;;;;;;;;5061453;28;20040;-72
2022/01/29 06:47:07;;;;;;;7.65;5.72;;;;;;;;;;5063040;28;20036;-72
2022/01/29 06:49:32;;;;;;;8.73;5.07;;;;;;;;;;5063110;28;20025;-72
2022/01/29 06:51:58;;;;;;;8.52;5.40;;;;;;;;;;5063772;28;20483;-72
2022/01/29 06:54:23;;;;;;;8.65;4.95;;;;;;;;;;5063991;28;20115;-72
2022/01/29 06:56:48;;;;;;;9.05;5.10;;;;;;;;;;5062248;28;20106;-75
2022/01/29 06:59:14;;;;;;;13.55;5.00;;;;;;;;;;5063440;28;20045;-72
2022/01/29 07:01:39;;;;;;;10.43;5.32;;;;;;;;;;5063471;28;20032;-70
2022/01/29 07:04:05;;;;;;;12.38;5.63;;;;;;;;;;5061957;28;20048;-73
2022/01/29 07:06:30;;;;;;;8.35;5.55;;;;;;;;;;5060971;28;20036;-72
2022/01/29 07:08:56;;;;;;;9.93;5.10;;;;;;;;;;5062678;28;20649;-71
2022/01/29 07:11:23;;;;;;;9.43;5.82;;;;;;;;;;5061898;28;20044;-72
2022/01/29 07:13:51;;;;;;;9.27;5.82;;;;;;;;;;5061927;28;20630;-74
2022/01/29 07:16:17;;;;;;;10.90;6.20;;;;;;;;;;5061594;28;20032;-74
2022/01/29 07:18:42;;;;;;;10.68;6.03;;;;;;;;;;5059950;28;20049;-74
2022/01/29 07:21:08;;;;;;;10.75;5.93;;;;;;;;;;5062622;28;20050;-73
2022/01/29 07:23:34;;;;;;;11.18;5.47;;;;;;;;;;5062945;28;20071;-71
2022/01/29 07:25:59;;;;;;;9.10;5.00;;;;;;;;;;5061135;28;20120;-73
2022/01/29 07:28:25;;;;;;;9.98;5.85;;;;;;;;;;5058834;28;20135;-73
2022/01/29 07:30:50;;;;;;;8.75;5.30;;;;;;;;;;5059521;28;20035;-74
2022/01/29 07:33:15;;;;;;;11.20;5.60;;;;;;;;;;5061046;28;20041;-73
2022/01/29 07:35:41;;;;;;;6.30;4.43;;;;;;;;;;5043559;28;20174;-73
2022/01/29 07:38:06;;;;;;;8.40;4.93;;;;;;;;;;5060224;28;20476;-73
2022/01/29 07:40:32;;;;;;;10.73;6.18;;;;;;;;;;5040993;28;20482;-73
2022/01/29 07:42:57;;;;;;;6.88;3.72;;;;;;;;;;5060931;28;20123;-73
2022/01/29 07:45:23;;;;;;;6.40;4.78;;;;;;;;;;5062344;28;20822;-73
2022/01/29 07:47:48;;;;;;;7.38;4.20;;;;;;;;;;5062522;28;20044;-73
2022/01/29 07:50:14;;;;;;;3.72;3.10;;;;;;;;;;5061709;28;20032;-73
2022/01/29 07:52:39;;;;;;;7.07;3.20;;;;;;;;;;5061209;28;20059;-73
2022/01/29 07:55:07;;;;;;;3.75;2.38;;;;;;;;;;5056787;28;20037;-76
2022/01/29 07:57:33;;;;;;;3.42;2.53;;;;;;;;;;5054747;28;20044;-75
2022/01/29 07:59:58;;;;;;;6.30;3.00;;;;;;;;;;5060170;28;20051;-74
2022/01/29 08:02:24;;;;;;;2.38;1.63;;;;;;;;;;5059820;28;20118;-71
2022/01/29 08:04:49;;;;;;;4.38;1.48;;;;;;;;;;5061249;28;20040;-72
2022/01/29 08:07:14;;;;;;;1.50;1.23;;;;;;;;;;5060113;28;20165;-72
2022/01/29 08:09:40;;;;;;;2.38;1.50;;;;;;;;;;5061195;28;20505;-74
2022/01/29 08:12:05;;;;;;;3.78;1.55;;;;;;;;;;5061387;28;20401;-71
2022/01/29 08:14:31;;;;;;;2.42;1.60;;;;;;;;;;5060353;28;20066;-71
2022/01/29 08:16:56;;;;;;;1.48;1.23;;;;;;;;;;5056690;28;20040;-71
2022/01/29 08:19:22;;;;;;;2.10;1.90;;;;;;;;;;5057466;28;20086;-71
2022/01/29 08:21:47;;;;;;;2.53;1.75;;;;;;;;;;5060328;28;20151;-72
2022/01/29 08:24:13;;;;;;;3.60;1.90;;;;;;;;;;5076358;28;20036;-72
2022/01/29 08:26:38;;;;;;;3.80;1.90;;;;;;;;;;5060600;28;21152;-73
2022/01/29 08:29:04;;;;;;;2.47;2.05;;;;;;;;;;5060464;28;20104;-73
2022/01/29 08:31:29;;;;;;;2.03;1.58;;;;;;;;;;5058577;28;20036;-72
2022/01/29 08:33:54;;;;;;;2.10;1.77;;;;;;;;;;5058874;28;20631;-73
2022/01/29 08:36:20;;;;;;;2.58;1.63;;;;;;;;;;5056292;28;20747;-75
2022/01/29 08:38:45;;;;;;;2.20;2.00;;;;;;;;;;5057164;28;20036;-75
2022/01/29 08:41:11;;;;;;;1.90;1.73;;;;;;;;;;5058301;28;20123;-73
2022/01/29 08:43:37;;;;;;;3.35;1.98;;;;;;;;;;5058296;28;20044;-73
2022/01/29 08:46:02;;;;;;;2.67;1.70;;;;;;;;;;5058344;28;20059;-73
2022/01/29 08:48:28;;;;;;;2.50;1.50;;;;;;;;;;5059696;28;20143;-73
2022/01/29 08:50:53;;;;;;;2.20;1.63;;;;;;;;;;5060413;28;20047;-73
2022/01/29 08:53:20;;;;;;;1.88;1.67;;;;;;;;;;5058165;28;20489;-73
2022/01/29 08:55:46;;;;;;;2.45;1.70;;;;;;;;;;5058807;28;20492;-74
2022/01/29 08:58:12;;;;;;;1.95;1.45;;;;;;;;;;5057634;28;20060;-72
2022/01/29 09:00:41;;;;;;;3.03;1.75;;;;;;;;;;5041762;28;20590;-73
2022/01/29 09:03:07;;;;;;;2.55;1.92;;;;;;;;;;5060451;28;20041;-74
2022/01/29 09:05:34;;;;;;;1.40;1.30;;;;;;;;;;5075389;28;20047;-75
2022/01/29 09:08:01;;;;;;;2.65;1.92;;;;;;;;;;5059275;28;20153;-74
2022/01/29 09:10:27;;;;;;;2.08;1.75;;;;;;;;;;5063369;28;20051;-75
2022/01/29 09:12:53;;;;;;;2.03;1.30;;;;;;;;;;5061073;28;20036;-75
2022/01/29 09:15:19;;;;;;;1.73;1.48;;;;;;;;;;5059638;28;20042;-76
2022/01/29 09:17:44;;;;;;;2.88;1.45;;;;;;;;;;5059644;28;20716;-73
2022/01/29 09:20:11;;;;;;;1.45;1.33;;;;;;;;;;5060316;28;20040;-76
2022/01/29 09:22:38;;;;;;;1.83;1.45;;;;;;;;;;5060699;28;20036;-73
2022/01/29 09:25:04;;;;;;;1.65;1.55;;;;;;;;;;5060739;28;20037;-74
2022/01/29 09:27:30;;;;;;;2.53;1.42;;;;;;;;;;5059431;28;20071;-74
2022/01/29 09:29:55;;;;;;;2.85;1.50;;;;;;;;;;5056820;28;20062;-77
2022/01/29 09:32:21;;;;;;;1.70;1.30;;;;;;;;;;5056784;28;20043;-78
2022/01/29 09:34:46;;;;;;;2.72;1.50;;;;;;;;;;5059051;28;20039;-73
2022/01/29 09:37:13;;;;;;;1.80;1.15;;;;;;;;;;5058032;28;20083;-74
2022/01/29 09:39:38;;;;;;;2.17;1.45;;;;;;;;;;5056139;28;20247;-75
2022/01/29 09:42:06;;;;;;;1.27;1.05;;;;;;;;;;5058209;28;20039;-73
2022/01/29 09:44:34;;;;;;;3.83;1.40;;;;;;;;;;5059379;28;20044;-74
2022/01/29 09:47:00;;;;;;;1.58;1.45;;;;;;;;;;5059732;28;20093;-73
2022/01/29 09:49:31;;;;;;;1.60;1.40;;;;;;;;;;5058617;28;20210;-71
2022/01/29 09:51:56;;;;;;;5.82;1.38;;;;;;;;;;5062443;28;20086;-74
2022/01/29 09:54:22;;;;;;;1.63;1.23;;;;;;;;;;5060591;28;20486;-72
2022/01/29 09:56:47;;;;;;;2.53;1.23;;;;;;;;;;5064005;28;20135;-72
2022/01/29 09:59:12;;;;;;;1.85;1.38;;;;;;;;;;5061328;28;20040;-72
2022/01/29 10:01:38;;;;;;;1.70;1.60;;;;;;;;;;5076700;28;20029;-71
2022/01/29 10:04:05;;;;;;;3.25;1.77;;;;;;;;;;5041115;28;20485;-70
2022/01/29 10:06:32;;;;;;;3.78;1.92;;;;;;;;;;5060313;28;20032;-73
2022/01/29 10:08:59;;;;;;;3.03;2.70;;;;;;;;;;5060201;28;20059;-74
2022/01/29 10:11:26;;;;;;;1.95;1.77;;;;;;;;;;5059941;28;20044;-75
2022/01/29 10:13:57;;;;;;;4.82;1.50;;;;;;;;;;5050515;28;20052;-75
2022/01/29 10:16:25;;;;;;;1.50;1.40;;;;;;;;;;5059114;28;20044;-75
2022/01/29 10:19:06;;;;;;;2.97;1.60;;;;;;;;;;5040654;28;20352;-74
2022/01/29 10:21:32;;;;;;;1.60;1.50;;;;;;;;;;5058069;28;20044;-75
2022/01/29 10:24:09;;;;;;;2.75;1.48;;;;;;;;;;5060986;28;20032;-74
2022/01/29 10:26:39;;;;;;;3.00;1.55;;;;;;;;;;5063074;28;20533;-75
2022/01/29 10:29:15;;;;;;;3.15;1.70;;;;;;;;;;5062646;28;20079;-74
2022/01/29 10:31:43;;;;;;;3.95;1.20;;;;;;;;;;5062853;28;20618;-73
2022/01/29 10:34:18;;;;;;;1.35;1.20;;;;;;;;;;5063212;28;20678;-73
2022/01/29 10:36:44;;;;;;;1.25;1.15;;;;;;;;;;5061208;28;20162;-75
2022/01/29 10:39:10;;;;;;;2.70;1.20;;;;;;;;;;5060769;28;20405;-73
2022/01/29 10:41:35;;;;;;;4.10;1.52;;;;;;;;;;5062721;28;20040;-73
2022/01/29 10:46:43;;;;;;;2.80;1.80;;;;;;;;;;5061156;28;20040;-72
2022/01/29 10:49:25;;;;;;;2.47;1.52;;;;;;;;;;5061827;28;20079;-72
2022/01/29 10:52:12;;;;;;;5.43;1.00;;;;;;;;;;5067314;28;20489;-72
2022/01/29 10:54:39;;;;;;;0.85;0.80;;;;;;;;;;5063185;28;20493;-74
2022/01/29 10:57:08;;;;;;;0.80;0.80;;;;;;;;;;5063358;28;20399;-76
2022/01/29 10:59:36;;;;;;;2.20;0.98;;;;;;;;;;5061609;28;20033;-76
2022/01/29 11:02:03;;;;;;;1.17;0.70;;;;;;;;;;5061855;28;20040;-74
2022/01/29 11:04:30;;;;;;;0.88;0.88;;;;;;;;;;5078355;28;20071;-78
2022/01/29 11:07:00;;;;;;;0.63;0.63;;;;;;;;;;5063306;28;20045;-77
2022/01/29 11:09:27;;;;;;;0.55;0.55;;;;;;;;;;5044150;28;20140;-77
2022/01/29 11:11:54;;;;;;;0.80;0.65;;;;;;;;;;5062066;28;20492;-76
2022/01/29 11:14:21;;;;;;;0.75;0.75;;;;;;;;;;5062795;28;20699;-77
2022/01/29 11:16:47;;;;;;;0.82;0.82;;;;;;;;;;5078441;28;20040;-76
2022/01/29 11:19:15;;;;;;;0.88;0.88;;;;;;;;;;5061301;28;20033;-76
2022/01/29 11:21:42;;;;;;;0.50;0.50;;;;;;;;;;5043567;28;20500;-77
2022/01/29 11:24:10;;;;;;;3.97;0.75;;;;;;;;;;5063087;28;20720;-77
2022/01/29 11:26:36;;;;;;;1.05;0.70;;;;;;;;;;5060518;28;20041;-75
2022/01/29 11:29:24;;;;;;;1.80;0.70;;;;;;;;;;5061167;28;20029;-73
2022/01/29 11:32:21;;;;;;;0.75;0.70;;;;;;;;;;5061195;28;20098;-72
2022/01/29 11:35:15;;;;;;;0.50;0.50;;;;;;;;;;5077205;28;20047;-72
2022/01/29 11:38:02;;;;;;;2.20;0.63;;;;;;;;;;5062351;28;20075;-72
2022/01/29 11:40:36;;;;;;;0.57;0.57;;;;;;;;;;5053332;28;20041;-73
2022/01/29 11:43:15;;;;;;;0.55;0.55;;;;;;;;;;5059202;28;20374;-74
2022/01/29 11:46:15;;;;;;;1.83;0.80;;;;;;;;;;5060787;28;20040;-73
2022/01/29 11:48:52;;;;;;;0.60;0.60;;;;;;;;;;5077803;28;20035;-73
2022/01/29 11:51:48;;;;;;;0.82;0.70;;;;;;;;;;5061369;28;20071;-73
2022/01/29 11:54:20;;;;;;;4.07;0.60;;;;;;;;;;5055165;28;20089;-73
2022/01/29 11:56:47;;;;;;;1.45;0.90;;;;;;;;;;5043747;28;20423;-73
2022/01/29 11:59:24;;;;;;;2.58;0.52;;;;;;;;;;5064862;28;20127;-73
2022/01/29 12:02:00;;;;;;;0.60;0.60;;;;;;;;;;5062274;28;20406;-73
2022/01/29 12:04:51;;;;;;;0.50;0.50;;;;;;;;;;5061179;28;20036;-72
2022/01/29 12:07:28;;;;;;;0.65;0.65;;;;;;;;;;5056954;28;20690;-75
2022/01/29 12:10:05;;;;;;;0.77;0.60;;;;;;;;;;5043223;28;20090;-75
2022/01/29 12:12:34;;;;;;;1.23;0.80;;;;;;;;;;5064004;28;20115;-73
2022/01/29 12:15:08;;;;;;;0.50;0.50;;;;;;;;;;5058658;28;20401;-74
2022/01/29 12:17:38;;;;;;;23.45;10.15;;;;;;;;;;5059740;28;20036;-72
2022/01/29 12:20:07;;;;;;;11.38;5.78;;;;;;;;;;5060035;28;20434;-72
2022/01/29 12:22:35;;;;;;;1.25;0.43;;;;;;;;;;5060841;28;20040;-72
2022/01/29 12:25:03;;;;;;;14.57;7.65;;;;;;;;;;5061499;28;20070;-72
2022/01/29 12:28:13;;;;;;;6.32;4.28;;;;;;;;;;5060407;28;20032;-74
2022/01/29 12:30:40;;;;;;;0.50;0.50;;;;;;;;;;5058553;28;20044;-74
2022/01/29 12:33:14;;;;;;;1.38;1.20;;;;;;;;;;5060415;28;20040;-73
2022/01/29 12:35:58;;;;;;;0.70;0.70;;;;;;;;;;5076608;28;20115;-72
2022/01/29 12:38:28;;;;;;;0.57;0.57;;;;;;;;;;5057486;28;20047;-72
2022/01/29 12:41:01;;;;;;;0.60;0.60;;;;;;;;;;5059433;28;20040;-72
2022/01/29 12:43:36;;;;;;;0.43;0.43;;;;;;;;;;5059473;28;20040;-71
2022/01/29 12:46:13;;;;;;;0.70;0.70;;;;;;;;;;5059129;28;20119;-72
2022/01/29 12:48:39;;;;;;;0.70;0.63;;;;;;;;;;5058815;28;20075;-72
2022/01/29 12:51:08;;;;;;;2.97;0.68;;;;;;;;;;5059509;28;20037;-72
2022/01/29 12:53:34;;;;;;;0.70;0.70;;;;;;;;;;5058659;28;20131;-72
2022/01/29 12:56:08;;;;;;;0.60;0.60;;;;;;;;;;5059937;28;20036;-73
2022/01/29 12:58:36;;;;;;;0.70;0.60;;;;;;;;;;5059259;28;20044;-72
2022/01/29 13:01:08;;;;;;;0.57;0.57;;;;;;;;;;5060858;28;20413;-72
2022/01/29 13:03:34;;;;;;;2.40;0.68;;;;;;;;;;5060852;28;20063;-72
2022/01/29 13:06:05;;;;;;;0.52;0.40;;;;;;;;;;5061146;28;20035;-72
2022/01/29 13:08:30;;;;;;;0.40;0.40;;;;;;;;;;5060538;28;20049;-72
2022/01/29 13:10:56;;;;;;;0.60;0.60;;;;;;;;;;5058706;28;20036;-72
2022/01/29 13:13:34;;;;;;;0.82;0.77;;;;;;;;;;5060059;28;20033;-71
2022/01/29 13:16:00;;;;;;;0.60;0.60;;;;;;;;;;5076477;28;20036;-72
2022/01/29 13:18:27;;;;;;;0.88;0.68;;;;;;;;;;5061177;28;20042;-72
2022/01/29 13:20:54;;;;;;;0.50;0.50;;;;;;;;;;5059149;28;20569;-73
2022/01/29 13:23:20;;;;;;;0.55;0.55;;;;;;;;;;5076059;28;20044;-71
2022/01/29 13:25:46;;;;;;;0.40;0.40;;;;;;;;;;5061213;28;20047;-73
2022/01/29 13:28:16;;;;;;;0.40;0.40;;;;;;;;;;5060780;28;20513;-73
2022/01/29 13:30:44;;;;;;;0.50;0.50;;;;;;;;;;5042840;28;20504;-72
2022/01/29 13:33:18;;;;;;;0.60;0.60;;;;;;;;;;5059990;28;20449;-71
2022/01/29 13:35:48;;;;;;;0.60;0.60;;;;;;;;;;5062999;28;20040;-74
2022/01/29 13:38:24;;;;;;;0.50;0.50;;;;;;;;;;5058445;28;21944;-75
2022/01/29 13:40:57;;;;;;;0.65;0.57;;;;;;;;;;5059630;28;20040;-74
2022/01/29 13:43:41;;;;;;;0.60;0.50;;;;;;;;;;5058756;28;20485;-74
2022/01/29 13:46:10;;;;;;;1.00;0.52;;;;;;;;;;5057488;28;20041;-74
2022/01/29 13:48:55;;;;;;;0.70;0.70;;;;;;;;;;5058737;28;20033;-74
2022/01/29 13:51:38;;;;;;;1.98;0.90;;;;;;;;;;5060275;28;20032;-73
2022/01/29 13:54:05;;;;;;;0.70;0.70;;;;;;;;;;5042870;28;20044;-73
2022/01/29 13:56:33;;;;;;;0.60;0.60;;;;;;;;;;5061299;28;20036;-74
2022/01/29 13:59:09;;;;;;;0.90;0.90;;;;;;;;;;5062220;28;20068;-77
2022/01/29 14:01:57;;;;;;;0.40;0.40;;;;;;;;;;5065651;28;20036;-75
2022/01/29 14:04:32;;;;;;;0.60;0.55;;;;;;;;;;5065044;28;20041;-77
2022/01/29 14:07:10;;;;;;;3.45;0.60;;;;;;;;;;5064420;28;20040;-75
2022/01/29 14:10:00;;;;;;;1.45;0.93;;;;;;;;;;5066379;28;20115;-75
2022/01/29 14:12:28;;;;;;;0.70;0.70;;;;;;;;;;5061576;28;20063;-72
2022/01/29 14:14:55;;;;;;;0.38;0.38;;;;;;;;;;5062908;28;20045;-70
2022/01/29 14:17:24;;;;;;;0.65;0.63;;;;;;;;;;5064242;28;20036;-70
2022/01/29 14:19:53;;;;;;;0.57;0.57;;;;;;;;;;5063496;28;20094;-70
2022/01/29 14:22:20;;;;;;;0.63;0.63;;;;;;;;;;5062788;28;20052;-70
2022/01/29 14:24:46;;;;;;;0.60;0.60;;;;;;;;;;5063009;28;20101;-71
2022/01/29 14:27:11;;;;;;;0.65;0.65;;;;;;;;;;5062071;28;20075;-70
2022/01/29 14:29:39;;;;;;;1.20;1.10;;;;;;;;;;5060268;28;20889;-71
2022/01/29 14:32:05;;;;;;;0.80;0.80;;;;;;;;;;5063515;28;20482;-71
2022/01/29 14:34:31;;;;;;;0.80;0.60;;;;;;;;;;5045231;28;20041;-70
2022/01/29 14:36:58;;;;;;;2.20;1.08;;;;;;;;;;5063520;28;20028;-70
2022/01/29 14:39:26;;;;;;;0.88;0.88;;;;;;;;;;5060467;28;20059;-71
2022/01/29 14:41:53;;;;;;;2.35;0.90;;;;;;;;;;5063350;28;20043;-70
2022/01/29 14:44:19;;;;;;;1.15;1.00;;;;;;;;;;5060162;28;20036;-71
2022/01/29 14:46:44;;;;;;;0.60;0.60;;;;;;;;;;5062093;28;20039;-70
2022/01/29 14:49:10;;;;;;;1.05;0.75;;;;;;;;;;5061543;28;20124;-71
2022/01/29 14:51:38;;;;;;;1.85;1.10;;;;;;;;;;5061146;28;20033;-72
2022/01/29 14:54:06;;;;;;;0.85;0.85;;;;;;;;;;5061766;28;20072;-71
2022/01/29 14:56:33;;;;;;;0.93;0.90;;;;;;;;;;5060679;28;20040;-73
2022/01/29 14:58:58;;;;;;;1.17;1.05;;;;;;;;;;5062310;28;20039;-71
2022/01/29 15:01:25;;;;;;;1.20;1.10;;;;;;;;;;5062938;28;20692;-75
2022/01/29 15:03:53;;;;;;;1.63;1.15;;;;;;;;;;5063440;28;20028;-73
2022/01/29 15:06:20;;;;;;;2.80;2.13;;;;;;;;;;5061309;28;20041;-72